createdAt,value
2023-02-11T00:01:26.851Z,12.10
2023-02-11T00:03:55.376Z,10.60
2023-02-11T00:06:23.850Z,10.10
2023-02-11T00:08:51.973Z,9.70
2023-02-11T00:11:23.413Z,10.70
2023-02-11T00:13:52.648Z,10.00
2023-02-11T00:16:21.256Z,11.00
2023-02-11T00:18:50.561Z,10.60
2023-02-11T00:21:21.957Z,10.80
2023-02-11T00:23:50.029Z,10.10
2023-02-11T00:26:19.600Z,10.40
2023-02-11T00:28:48.613Z,11.80
2023-02-11T00:31:17.842Z,10.60
2023-02-11T00:33:46.528Z,9.80
2023-02-11T00:36:16.289Z,10.00
2023-02-11T00:38:47.637Z,11.90
2023-02-11T00:41:16.172Z,9.80
2023-02-11T00:43:44.750Z,10.40
2023-02-11T00:46:13.543Z,10.00
2023-02-11T00:48:41.656Z,10.40
2023-02-11T00:51:10.404Z,11.30
2023-02-11T00:53:38.838Z,11.40
2023-02-11T00:56:07.025Z,11.30
2023-02-11T00:58:35.494Z,12.10
2023-02-11T01:01:11.044Z,11.00
2023-02-11T01:03:42.294Z,11.10
2023-02-11T01:06:10.524Z,11.70
2023-02-11T01:08:39.470Z,13.60
2023-02-11T01:11:14.313Z,13.20
2023-02-11T01:13:42.770Z,12.10
2023-02-11T01:16:11.420Z,13.50
2023-02-11T01:18:39.701Z,10.60
2023-02-11T01:21:07.842Z,12.20
2023-02-11T01:23:35.874Z,11.30
2023-02-11T01:26:03.978Z,10.00
2023-02-11T01:28:32.720Z,11.00
2023-02-11T01:31:04.651Z,10.00
2023-02-11T01:33:34.054Z,11.70
2023-02-11T01:36:05.348Z,9.60
2023-02-11T01:38:33.467Z,9.60
2023-02-11T01:41:06.106Z,9.20
2023-02-11T01:43:35.340Z,8.90
2023-02-11T01:46:22.222Z,10.00
2023-02-11T01:48:59.275Z,9.40
2023-02-11T01:51:33.115Z,10.30
2023-02-11T01:54:20.157Z,8.50
2023-02-11T01:57:08.401Z,12.60
2023-02-11T01:59:52.565Z,10.30
2023-02-11T02:02:23.891Z,9.50
2023-02-11T02:05:15.411Z,10.90
2023-02-11T02:07:49.322Z,9.10
2023-02-11T02:10:20.953Z,9.30
2023-02-11T02:12:49.442Z,11.10
2023-02-11T02:15:23.647Z,9.60
2023-02-11T02:17:54.783Z,10.90
2023-02-11T02:20:31.749Z,8.70
2023-02-11T02:23:05.806Z,9.90
2023-02-11T02:25:52.878Z,9.70
2023-02-11T02:28:30.086Z,9.50
2023-02-11T02:31:04.421Z,8.40
2023-02-11T02:33:38.162Z,10.80
2023-02-11T02:36:14.780Z,9.20
2023-02-11T02:38:53.068Z,9.70
2023-02-11T02:41:27.470Z,8.70
2023-02-11T02:43:55.691Z,9.50
2023-02-11T02:46:25.977Z,11.00
2023-02-11T02:51:40.800Z,8.50
2023-02-11T02:54:12.012Z,8.40
2023-02-11T02:56:53.116Z,9.20
2023-02-11T02:59:23.892Z,9.60
2023-02-11T03:01:51.850Z,9.60
2023-02-11T03:04:22.712Z,9.40
2023-02-11T03:06:50.741Z,9.40
2023-02-11T03:09:18.697Z,8.50
2023-02-11T03:11:46.724Z,7.90
2023-02-11T03:14:16.509Z,7.60
2023-02-11T03:16:45.981Z,7.80
2023-02-11T03:19:21.849Z,8.10
2023-02-11T03:21:52.191Z,8.40
2023-02-11T03:26:52.473Z,7.10
2023-02-11T03:29:32.391Z,7.20
2023-02-11T03:32:06.318Z,8.00
2023-02-11T03:34:52.976Z,7.70
2023-02-11T03:37:21.111Z,8.60
2023-02-11T03:39:53.010Z,9.30
2023-02-11T03:42:22.854Z,8.30
2023-02-11T03:44:53.675Z,8.10
2023-02-11T03:47:23.922Z,7.40
2023-02-11T03:52:20.259Z,6.50
2023-02-11T03:54:51.139Z,10.10
2023-02-11T03:57:19.391Z,10.40
2023-02-11T03:59:57.887Z,11.00
2023-02-11T04:02:28.578Z,9.50
2023-02-11T04:04:57.196Z,9.50
2023-02-11T04:07:25.241Z,9.00
2023-02-11T04:09:53.400Z,9.70
2023-02-11T04:12:21.418Z,8.80
2023-02-11T04:14:49.349Z,9.40
2023-02-11T04:17:17.731Z,9.10
2023-02-11T04:19:46.307Z,9.40
2023-02-11T04:22:14.434Z,9.60
2023-02-11T04:24:44.293Z,10.60
2023-02-11T04:27:12.536Z,10.40
2023-02-11T04:29:40.726Z,9.70
2023-02-11T04:32:09.690Z,9.70
2023-02-11T04:34:38.092Z,9.30
2023-02-11T04:37:07.129Z,10.50
2023-02-11T04:39:35.349Z,8.80
2023-02-11T04:42:03.640Z,9.60
2023-02-11T04:44:31.747Z,10.90
2023-02-11T04:47:00.124Z,10.40
2023-02-11T04:49:28.298Z,11.70
2023-02-11T04:51:56.227Z,13.00
2023-02-11T04:54:25.145Z,11.90
2023-02-11T04:56:53.433Z,10.90
2023-02-11T04:59:21.590Z,11.00
2023-02-11T05:01:50.013Z,10.40
2023-02-11T05:04:18.219Z,10.60
2023-02-11T05:06:46.353Z,12.00
2023-02-11T05:09:14.466Z,10.80
2023-02-11T05:11:42.581Z,11.00
2023-02-11T05:14:11.121Z,11.60
2023-02-11T05:16:39.173Z,11.60
2023-02-11T05:19:07.190Z,12.30
2023-02-11T05:21:35.696Z,11.80
2023-02-11T05:24:03.865Z,11.30
2023-02-11T05:26:32.183Z,14.50
2023-02-11T05:29:00.366Z,14.10
2023-02-11T05:31:28.424Z,12.80
2023-02-11T05:33:56.405Z,14.60
2023-02-11T05:36:24.376Z,13.60
2023-02-11T05:38:52.454Z,12.70
2023-02-11T05:41:20.461Z,11.60
2023-02-11T05:43:51.137Z,11.30
2023-02-11T05:46:19.588Z,10.60
2023-02-11T05:48:50.220Z,11.70
2023-02-11T05:51:18.302Z,12.60
2023-02-11T05:53:46.223Z,12.80
2023-02-11T05:56:14.851Z,11.10
2023-02-11T05:58:43.123Z,11.90
2023-02-11T06:01:11.691Z,12.40
2023-02-11T06:03:39.865Z,11.50
2023-02-11T06:06:11.837Z,11.70
2023-02-11T06:08:40.281Z,10.30
2023-02-11T06:11:08.358Z,10.70
2023-02-11T06:13:36.621Z,13.70
2023-02-11T06:16:05.037Z,12.40
2023-02-11T06:18:33.807Z,12.50
2023-02-11T06:21:01.973Z,11.90
2023-02-11T06:23:30.769Z,13.70
2023-02-11T06:26:01.887Z,13.00
2023-02-11T06:28:31.594Z,13.00
2023-02-11T06:31:04.679Z,12.80
2023-02-11T06:33:33.714Z,17.10
2023-02-11T06:36:02.397Z,20.60
2023-02-11T06:38:30.506Z,16.20
2023-02-11T06:40:58.764Z,15.30
2023-02-11T06:43:28.228Z,15.70
2023-02-11T06:45:56.804Z,14.60
2023-02-11T06:48:24.984Z,14.90
2023-02-11T06:50:53.097Z,15.40
2023-02-11T06:53:21.254Z,14.20
2023-02-11T06:55:49.463Z,15.30
2023-02-11T06:58:17.777Z,16.20
2023-02-11T07:00:46.193Z,16.50
2023-02-11T07:03:14.302Z,19.90
2023-02-11T07:05:42.986Z,21.10
2023-02-11T07:08:11.469Z,19.50
2023-02-11T07:10:39.573Z,20.50
2023-02-11T07:13:07.714Z,17.40
2023-02-11T07:15:37.152Z,16.10
2023-02-11T07:18:05.349Z,16.70
2023-02-11T07:20:37.063Z,16.30
2023-02-11T07:23:05.620Z,16.20
2023-02-11T07:25:33.746Z,17.10
2023-02-11T07:28:01.711Z,17.90
2023-02-11T07:30:29.707Z,16.00
2023-02-11T07:32:57.831Z,18.90
2023-02-11T07:35:25.847Z,19.30
2023-02-11T07:37:54.478Z,22.30
2023-02-11T07:40:22.630Z,18.10
2023-02-11T07:42:50.689Z,19.00
2023-02-11T07:45:18.724Z,24.50
2023-02-11T07:47:46.841Z,23.50
2023-02-11T07:50:15.844Z,20.40
2023-02-11T07:52:43.868Z,18.20
2023-02-11T07:55:12.502Z,17.50
2023-02-11T07:57:41.343Z,16.00
2023-02-11T08:00:10.388Z,15.30
2023-02-11T08:02:41.348Z,17.30
2023-02-11T08:05:09.488Z,15.90
2023-02-11T08:07:37.456Z,15.70
2023-02-11T08:10:05.833Z,14.80
2023-02-11T08:12:34.177Z,16.30
2023-02-11T08:15:02.258Z,17.30
2023-02-11T08:17:30.374Z,16.50
2023-02-11T08:19:58.422Z,17.60
2023-02-11T08:22:26.546Z,19.10
2023-02-11T08:24:54.612Z,17.90
2023-02-11T08:27:22.628Z,20.30
2023-02-11T08:29:50.679Z,21.70
2023-02-11T08:32:18.758Z,23.20
2023-02-11T08:34:46.842Z,22.60
2023-02-11T08:37:14.904Z,22.30
2023-02-11T08:39:42.972Z,22.90
2023-02-11T08:42:11.067Z,21.50
2023-02-11T08:44:39.455Z,23.70
2023-02-11T08:47:07.692Z,22.70
2023-02-11T08:49:36.459Z,23.50
2023-02-11T08:52:05.117Z,21.20
2023-02-11T08:54:33.325Z,19.20
2023-02-11T08:57:02.101Z,18.20
2023-02-11T08:59:30.276Z,19.00
2023-02-11T09:01:59.910Z,24.30
2023-02-11T09:04:27.986Z,20.40
2023-02-11T09:06:56.057Z,19.40
2023-02-11T09:09:24.551Z,20.40
2023-02-11T09:11:57.287Z,22.60
2023-02-11T09:14:25.416Z,21.20
2023-02-11T09:16:53.824Z,21.00
2023-02-11T09:19:23.326Z,21.90
2023-02-11T09:21:51.507Z,25.50
2023-02-11T09:24:19.530Z,21.00
2023-02-11T09:26:47.689Z,22.00
2023-02-11T09:29:15.719Z,18.40
2023-02-11T09:31:43.923Z,18.60
2023-02-11T09:34:12.693Z,21.70
2023-02-11T09:36:41.517Z,20.40
2023-02-11T09:39:12.142Z,21.10
2023-02-11T09:41:56.411Z,21.60
2023-02-11T09:44:25.864Z,24.50
2023-02-11T09:47:01.174Z,23.40
2023-02-11T09:49:35.862Z,20.60
2023-02-11T09:52:13.102Z,23.10
2023-02-11T09:54:54.998Z,22.00
2023-02-11T09:57:28.891Z,20.50
2023-02-11T09:59:57.771Z,18.20
2023-02-11T10:02:45.275Z,24.70
2023-02-11T10:05:31.026Z,28.10
2023-02-11T10:08:04.949Z,40.90
2023-02-11T10:10:39.445Z,22.70
2023-02-11T10:13:19.612Z,23.20
2023-02-11T10:15:55.251Z,24.30
2023-02-11T10:18:43.647Z,15.70
2023-02-11T10:21:22.702Z,14.70
2023-02-11T10:23:52.923Z,14.60
2023-02-11T10:26:21.418Z,16.00
2023-02-11T10:28:51.105Z,15.70
2023-02-11T10:31:26.005Z,17.60
2023-02-11T10:33:56.936Z,18.60
2023-02-11T10:36:28.119Z,17.40
2023-02-11T10:38:56.212Z,17.50
2023-02-11T10:41:28.252Z,22.80
2023-02-11T10:43:56.319Z,21.80
2023-02-11T10:46:27.560Z,24.80
2023-02-11T10:48:55.646Z,23.80
2023-02-11T10:51:25.243Z,25.00
2023-02-11T10:54:06.239Z,24.00
2023-02-11T10:56:42.691Z,21.90
2023-02-11T10:59:18.578Z,23.90
2023-02-11T11:01:52.878Z,22.40
2023-02-11T11:04:41.218Z,20.20
2023-02-11T11:07:18.227Z,22.70
2023-02-11T11:09:55.109Z,22.10
2023-02-11T11:12:28.944Z,20.90
2023-02-11T11:14:59.256Z,21.00
2023-02-11T11:17:29.449Z,20.40
2023-02-11T11:20:16.451Z,20.50
2023-02-11T11:22:45.620Z,21.90
2023-02-11T11:25:25.121Z,21.10
2023-02-11T11:27:54.927Z,21.60
2023-02-11T11:30:24.300Z,20.50
2023-02-11T11:32:52.711Z,20.00
2023-02-11T11:35:24.130Z,21.40
2023-02-11T11:37:59.324Z,22.60
2023-02-11T11:40:30.164Z,21.90
2023-02-11T11:43:06.171Z,20.80
2023-02-11T11:45:34.255Z,22.60
2023-02-11T11:48:21.743Z,21.90
2023-02-11T11:50:59.047Z,20.70
2023-02-11T11:53:41.381Z,21.00
2023-02-11T11:56:18.942Z,24.30
2023-02-11T11:58:49.075Z,22.80
2023-02-11T12:01:17.162Z,21.40
2023-02-11T12:03:45.115Z,25.70
2023-02-11T12:06:22.132Z,22.50
2023-02-11T12:08:52.871Z,22.70
2023-02-11T12:11:20.798Z,23.50
2023-02-11T12:13:54.981Z,23.90
2023-02-11T12:16:35.620Z,23.60
2023-02-11T12:21:34.760Z,21.50
2023-02-11T12:24:23.913Z,22.90
2023-02-11T12:26:56.675Z,24.80
2023-02-11T12:29:35.725Z,23.20
2023-02-11T12:32:27.495Z,25.80
2023-02-11T12:35:14.407Z,24.00
2023-02-11T12:37:42.624Z,22.20
2023-02-11T12:40:16.705Z,23.80
2023-02-11T12:43:15.865Z,22.40
2023-02-11T12:45:50.092Z,22.20
2023-02-11T12:48:35.940Z,24.00
2023-02-11T12:51:14.472Z,22.60
2023-02-11T12:53:47.926Z,24.20
2023-02-11T12:56:20.882Z,22.10
2023-02-11T12:58:50.322Z,25.70
2023-02-11T13:01:39.062Z,22.30
2023-02-11T13:04:20.821Z,25.40
2023-02-11T13:06:52.257Z,24.80
2023-02-11T13:09:23.671Z,24.80
2023-02-11T13:11:55.310Z,22.80
2023-02-11T13:14:32.495Z,21.80
2023-02-11T13:17:01.102Z,26.70
2023-02-11T13:19:29.195Z,25.60
2023-02-11T13:22:16.216Z,28.00
2023-02-11T13:24:48.155Z,24.10
2023-02-11T13:27:35.088Z,26.50
2023-02-11T13:30:14.396Z,25.80
2023-02-11T13:32:54.874Z,22.40
2023-02-11T13:35:35.737Z,24.20
2023-02-11T13:40:38.202Z,21.30
2023-02-11T13:43:22.801Z,21.60
2023-02-11T13:45:52.701Z,20.40
2023-02-11T13:48:25.719Z,20.90
2023-02-11T13:50:56.006Z,22.60
2023-02-11T13:55:53.384Z,23.40
2023-02-11T13:58:28.116Z,23.90
2023-02-11T14:00:56.058Z,22.40
2023-02-11T14:03:45.702Z,24.20
2023-02-11T14:06:34.461Z,22.90
2023-02-11T14:09:02.424Z,24.80
2023-02-11T14:11:34.726Z,25.30
2023-02-11T14:14:24.108Z,22.90
2023-02-11T14:16:58.601Z,24.90
2023-02-11T14:19:33.930Z,25.10
2023-02-11T14:22:06.963Z,24.60
2023-02-11T14:24:37.824Z,23.90
2023-02-11T14:27:09.472Z,25.10
2023-02-11T14:29:51.140Z,26.80
2023-02-11T14:32:19.162Z,27.20
2023-02-11T14:34:50.443Z,25.80
2023-02-11T14:37:21.354Z,24.20
2023-02-11T14:40:05.202Z,23.30
2023-02-11T14:42:34.695Z,21.90
2023-02-11T14:45:07.860Z,23.30
2023-02-11T14:47:45.156Z,24.30
2023-02-11T14:50:19.600Z,23.20
2023-02-11T14:52:47.657Z,21.50
2023-02-11T14:55:19.001Z,21.40
2023-02-11T14:57:49.733Z,21.40
2023-02-11T15:00:20.424Z,22.80
2023-02-11T15:02:48.624Z,23.00
2023-02-11T15:05:22.797Z,22.00
2023-02-11T15:07:55.399Z,23.80
2023-02-11T15:10:31.664Z,24.30
2023-02-11T15:13:02.891Z,22.70
2023-02-11T15:15:31.780Z,22.80
2023-02-11T15:18:01.769Z,21.50
2023-02-11T15:20:32.123Z,24.00
2023-02-11T15:23:04.403Z,22.50
2023-02-11T15:25:34.142Z,23.40
2023-02-11T15:28:11.203Z,23.70
2023-02-11T15:30:39.268Z,22.60
2023-02-11T15:33:21.016Z,23.00
2023-02-11T15:35:49.153Z,22.90
2023-02-11T15:38:18.384Z,26.40
2023-02-11T15:40:55.780Z,25.30
2023-02-11T15:43:23.930Z,25.40
2023-02-11T15:45:52.136Z,25.50
2023-02-11T15:48:40.502Z,25.90
2023-02-11T15:51:12.691Z,25.70
2023-02-11T15:53:43.405Z,23.40
2023-02-11T15:56:18.372Z,26.50
2023-02-11T15:58:47.821Z,25.60
2023-02-11T16:01:15.910Z,22.30
2023-02-11T16:03:44.804Z,20.40
2023-02-11T16:06:21.999Z,24.40
2023-02-11T16:09:01.113Z,22.20
2023-02-11T16:11:31.247Z,23.40
2023-02-11T16:14:00.648Z,22.80
2023-02-11T16:16:33.852Z,23.70
2023-02-11T16:19:05.315Z,26.10
2023-02-11T16:21:39.272Z,23.30
2023-02-11T16:24:08.027Z,24.60
2023-02-11T16:26:41.084Z,29.00
2023-02-11T16:29:16.636Z,26.40
2023-02-11T16:31:46.814Z,26.20
2023-02-11T16:34:19.272Z,25.80
2023-02-11T16:36:47.820Z,27.10
2023-02-11T16:39:16.976Z,28.20
2023-02-11T16:41:46.659Z,25.80
2023-02-11T16:44:17.879Z,27.10
2023-02-11T16:46:46.053Z,22.70
2023-02-11T16:49:25.549Z,25.10
2023-02-11T16:51:56.975Z,24.60
2023-02-11T16:54:24.949Z,23.60
2023-02-11T16:56:53.019Z,25.70
2023-02-11T16:59:21.147Z,23.80
2023-02-11T17:01:50.000Z,22.90
2023-02-11T17:04:26.511Z,24.90
2023-02-11T17:06:57.191Z,23.60
2023-02-11T17:09:30.237Z,22.60
2023-02-11T17:11:58.904Z,24.00
2023-02-11T17:14:27.055Z,23.60
2023-02-11T17:16:55.343Z,24.70
2023-02-11T17:19:23.422Z,24.50
2023-02-11T17:21:54.339Z,25.70
2023-02-11T17:24:22.750Z,23.70
2023-02-11T17:26:50.892Z,24.20
2023-02-11T17:29:22.899Z,28.00
2023-02-11T17:31:52.111Z,24.40
2023-02-11T17:34:21.498Z,19.40
2023-02-11T17:36:49.717Z,24.00
2023-02-11T17:39:19.303Z,23.20
2023-02-11T17:41:48.825Z,23.40
2023-02-11T17:44:17.339Z,23.30
2023-02-11T17:46:45.454Z,22.80
2023-02-11T17:49:13.508Z,24.60
2023-02-11T17:51:41.586Z,31.20
2023-02-11T17:54:14.022Z,29.30
2023-02-11T17:56:42.185Z,25.00
2023-02-11T17:59:10.851Z,24.10
2023-02-11T18:01:39.786Z,22.00
2023-02-11T18:04:09.604Z,24.10
2023-02-11T18:06:37.701Z,23.80
2023-02-11T18:09:05.839Z,24.70
2023-02-11T18:11:36.404Z,24.40
2023-02-11T18:16:35.206Z,20.60
2023-02-11T18:19:04.649Z,23.80
2023-02-11T18:21:32.658Z,25.60
2023-02-11T18:24:05.942Z,28.00
2023-02-11T18:26:35.009Z,25.30
2023-02-11T18:29:04.047Z,28.20
2023-02-11T18:31:32.234Z,28.80
2023-02-11T18:34:00.525Z,27.40
2023-02-11T18:36:28.582Z,35.00
2023-02-11T18:38:58.296Z,28.50
2023-02-11T18:41:26.960Z,28.20
2023-02-11T18:43:57.108Z,30.40
2023-02-11T18:46:25.722Z,33.40
2023-02-11T18:48:56.086Z,31.10
2023-02-11T18:51:24.486Z,31.00
2023-02-11T18:53:52.597Z,31.50
2023-02-11T18:56:22.956Z,35.30
2023-02-11T18:58:52.139Z,36.20
2023-02-11T19:01:22.960Z,41.40
2023-02-11T19:03:51.081Z,30.20
2023-02-11T19:06:21.061Z,28.50
2023-02-11T19:08:49.110Z,30.40
2023-02-11T19:11:21.090Z,34.50
2023-02-11T19:13:49.304Z,37.90
2023-02-11T19:16:20.026Z,38.80
2023-02-11T19:18:48.559Z,46.00
2023-02-11T19:21:16.562Z,50.50
2023-02-11T19:23:44.517Z,41.90
2023-02-11T19:26:12.520Z,45.40
2023-02-11T19:28:40.572Z,51.70
2023-02-11T19:31:09.300Z,48.90
2023-02-11T19:33:37.534Z,42.50
2023-02-11T19:36:06.882Z,35.50
2023-02-11T19:38:34.874Z,33.50
2023-02-11T19:41:02.951Z,31.90
2023-02-11T19:43:31.041Z,31.40
2023-02-11T19:46:01.339Z,30.60
2023-02-11T19:50:57.756Z,38.10
2023-02-11T19:53:25.764Z,40.20
2023-02-11T19:55:54.027Z,40.70
2023-02-11T19:58:22.194Z,38.50
2023-02-11T20:00:50.245Z,30.10
2023-02-11T20:03:18.741Z,39.90
2023-02-11T20:05:48.052Z,36.80
2023-02-11T20:08:17.208Z,39.30
2023-02-11T20:10:45.290Z,36.00
2023-02-11T20:13:13.666Z,34.60
2023-02-11T20:15:41.795Z,36.90
2023-02-11T20:18:09.887Z,37.00
2023-02-11T20:20:38.144Z,40.80
2023-02-11T20:23:06.139Z,34.80
2023-02-11T20:25:34.203Z,30.20
2023-02-11T20:28:04.433Z,32.00
2023-02-11T20:30:32.476Z,29.50
2023-02-11T20:33:00.512Z,30.40
2023-02-11T20:35:29.232Z,42.00
2023-02-11T20:37:57.849Z,32.00
2023-02-11T20:40:25.936Z,35.10
2023-02-11T20:42:53.880Z,35.10
2023-02-11T20:45:21.949Z,33.00
2023-02-11T20:47:49.935Z,40.40
2023-02-11T20:50:17.887Z,39.60
2023-02-11T20:52:46.038Z,35.70
2023-02-11T20:55:14.287Z,39.30
2023-02-11T20:57:42.555Z,39.50
2023-02-11T21:00:13.308Z,34.80
2023-02-11T21:02:41.659Z,28.00
2023-02-11T21:05:11.599Z,30.00
2023-02-11T21:07:41.117Z,25.10
2023-02-11T21:10:09.378Z,24.20
2023-02-11T21:12:37.749Z,24.40
2023-02-11T21:15:13.113Z,25.00
2023-02-11T21:17:41.179Z,25.20
2023-02-11T21:20:09.460Z,24.30
2023-02-11T21:22:37.659Z,21.40
2023-02-11T21:25:06.294Z,22.40
2023-02-11T21:27:34.497Z,22.10
2023-02-11T21:30:02.534Z,23.70
2023-02-11T21:32:30.592Z,25.80
2023-02-11T21:35:01.875Z,28.20
2023-02-11T21:37:30.403Z,26.40
2023-02-11T21:39:58.518Z,33.50
2023-02-11T21:42:26.517Z,27.50
2023-02-11T21:44:54.669Z,25.00
2023-02-11T21:47:22.692Z,28.10
2023-02-11T21:49:51.840Z,27.20
2023-02-11T21:52:19.825Z,29.10
2023-02-11T21:54:49.445Z,28.00
2023-02-11T21:57:18.099Z,30.70
2023-02-11T21:59:46.210Z,30.60
2023-02-11T22:02:14.403Z,25.70
2023-02-11T22:04:42.501Z,28.00
2023-02-11T22:07:10.921Z,24.90
2023-02-11T22:09:39.671Z,25.10
2023-02-11T22:12:09.029Z,31.80
2023-02-11T22:14:37.136Z,27.60
2023-02-11T22:17:05.630Z,26.70
2023-02-11T22:19:34.346Z,26.10
2023-02-11T22:22:02.399Z,26.20
2023-02-11T22:24:31.383Z,28.50
2023-02-11T22:26:59.368Z,26.70
2023-02-11T22:29:27.440Z,29.20
2023-02-11T22:31:55.480Z,28.80
2023-02-11T22:34:23.534Z,32.50
2023-02-11T22:36:51.700Z,29.00
2023-02-11T22:39:19.712Z,34.20
2023-02-11T22:41:48.123Z,37.90
2023-02-11T22:44:20.155Z,34.90
2023-02-11T22:46:48.219Z,29.00
2023-02-11T22:49:17.931Z,36.30
2023-02-11T22:51:46.100Z,35.40
2023-02-11T22:54:18.602Z,29.00
2023-02-11T22:56:49.778Z,31.60
2023-02-11T22:59:18.184Z,34.50
2023-02-11T23:01:46.315Z,35.00
2023-02-11T23:04:15.586Z,39.30
2023-02-11T23:06:44.010Z,35.60
2023-02-11T23:09:15.034Z,32.70
2023-02-11T23:11:43.255Z,31.70
2023-02-11T23:14:12.404Z,29.60
2023-02-11T23:16:42.661Z,28.60
2023-02-11T23:19:10.925Z,34.10
2023-02-11T23:21:39.669Z,30.50
2023-02-11T23:24:10.684Z,23.80
2023-02-11T23:26:39.891Z,31.30
2023-02-11T23:29:08.808Z,30.40
2023-02-11T23:31:40.007Z,31.30
2023-02-11T23:34:08.484Z,30.70
2023-02-11T23:36:36.909Z,28.50
2023-02-11T23:39:05.263Z,27.00
2023-02-11T23:41:33.304Z,24.60
2023-02-11T23:44:01.476Z,22.70
2023-02-11T23:46:29.633Z,25.00
2023-02-11T23:48:57.661Z,25.70
2023-02-11T23:51:25.648Z,27.10
2023-02-11T23:53:56.268Z,29.10
2023-02-11T23:56:26.204Z,29.50
2023-02-11T23:58:55.986Z,36.30
